createdAt,value
2017-06-28T00:02:23.570Z,23.08
2017-06-28T00:04:51.336Z,23.24
2017-06-28T00:07:18.849Z,23.17
2017-06-28T00:09:46.450Z,23.25
2017-06-28T00:12:13.975Z,23.09
2017-06-28T00:14:41.493Z,23.03
2017-06-28T00:17:09.016Z,23.15
2017-06-28T00:19:36.522Z,23.10
2017-06-28T00:22:04.035Z,23.09
2017-06-28T00:24:31.595Z,23.02
2017-06-28T00:26:59.163Z,23.18
2017-06-28T00:29:26.690Z,22.95
2017-06-28T00:31:54.279Z,23.21
2017-06-28T00:34:21.853Z,23.10
2017-06-28T00:36:49.361Z,23.04
2017-06-28T00:39:16.922Z,23.03
2017-06-28T00:41:44.442Z,23.13
2017-06-28T00:44:11.945Z,23.23
2017-06-28T00:46:39.530Z,23.09
2017-06-28T00:49:07.298Z,23.14
2017-06-28T00:51:34.833Z,23.07
2017-06-28T00:54:02.404Z,23.15
2017-06-28T00:56:29.986Z,23.03
2017-06-28T00:58:57.520Z,23.02
2017-06-28T01:01:25.109Z,23.03
2017-06-28T01:03:52.939Z,23.07
2017-06-28T01:06:20.506Z,23.14
2017-06-28T01:08:48.074Z,23.09
2017-06-28T01:11:15.609Z,23.04
2017-06-28T01:13:43.153Z,23.01
2017-06-28T01:16:10.741Z,23.00
2017-06-28T01:18:38.254Z,23.06
2017-06-28T01:21:05.779Z,23.02
2017-06-28T01:23:33.344Z,23.04
2017-06-28T01:26:00.857Z,23.03
2017-06-28T01:28:28.384Z,23.17
2017-06-28T01:30:56.258Z,23.18
2017-06-28T01:33:23.841Z,23.11
2017-06-28T01:35:51.388Z,23.06
2017-06-28T01:38:18.925Z,23.03
2017-06-28T01:40:46.450Z,23.09
2017-06-28T01:43:14.014Z,23.29
2017-06-28T01:45:41.584Z,23.76
2017-06-28T01:48:09.093Z,23.88
2017-06-28T01:50:36.632Z,23.97
2017-06-28T01:53:04.244Z,23.91
2017-06-28T01:55:31.768Z,23.98
2017-06-28T01:57:59.299Z,24.11
2017-06-28T02:00:26.925Z,23.89
2017-06-28T02:02:54.740Z,24.02
2017-06-28T02:05:22.551Z,23.96
2017-06-28T02:07:50.127Z,23.90
2017-06-28T02:10:17.625Z,23.64
2017-06-28T02:12:45.145Z,23.74
2017-06-28T02:15:12.713Z,23.82
2017-06-28T02:17:40.220Z,23.93
2017-06-28T02:20:07.730Z,23.65
2017-06-28T02:22:35.327Z,23.52
2017-06-28T02:25:02.895Z,23.51
2017-06-28T02:27:30.461Z,23.77
2017-06-28T02:29:58.062Z,23.76
2017-06-28T02:32:25.621Z,23.92
2017-06-28T02:34:53.131Z,24.05
2017-06-28T02:37:20.641Z,23.98
2017-06-28T02:39:48.249Z,23.57
2017-06-28T02:42:15.766Z,23.66
2017-06-28T02:44:43.274Z,23.42
2017-06-28T02:47:10.847Z,23.62
2017-06-28T02:49:38.365Z,23.31
2017-06-28T02:52:05.871Z,23.56
2017-06-28T02:54:33.468Z,23.50
2017-06-28T02:57:00.993Z,23.48
2017-06-28T02:59:28.512Z,23.21
2017-06-28T03:01:56.060Z,22.97
2017-06-28T03:04:23.631Z,22.88
2017-06-28T03:06:51.171Z,23.02
2017-06-28T03:09:18.722Z,23.00
2017-06-28T03:11:46.239Z,23.41
2017-06-28T03:14:13.762Z,23.82
2017-06-28T03:16:41.380Z,23.82
2017-06-28T03:19:08.897Z,24.03
2017-06-28T03:21:36.404Z,24.12
2017-06-28T03:24:04.002Z,24.10
2017-06-28T03:26:31.521Z,23.99
2017-06-28T03:28:59.361Z,24.12
2017-06-28T03:31:26.969Z,23.65
2017-06-28T03:33:54.548Z,23.84
2017-06-28T03:36:22.080Z,23.78
2017-06-28T03:38:49.624Z,23.30
2017-06-28T03:41:17.137Z,23.02
2017-06-28T03:43:44.657Z,23.31
2017-06-28T03:46:12.276Z,23.29
2017-06-28T03:48:39.865Z,22.88
2017-06-28T03:51:07.393Z,22.87
2017-06-28T03:53:35.158Z,23.23
2017-06-28T03:56:02.664Z,23.62
2017-06-28T03:58:30.187Z,23.37
2017-06-28T04:00:57.740Z,23.49
2017-06-28T04:03:25.509Z,23.69
2017-06-28T04:05:53.020Z,23.94
2017-06-28T04:08:20.566Z,24.16
2017-06-28T04:10:48.110Z,24.31
2017-06-28T04:13:15.636Z,24.40
2017-06-28T04:15:43.191Z,24.55
2017-06-28T04:18:10.744Z,24.65
2017-06-28T04:20:38.352Z,24.74
2017-06-28T04:23:06.006Z,24.86
2017-06-28T04:25:33.526Z,24.88
2017-06-28T04:28:01.040Z,25.14
2017-06-28T04:30:28.602Z,25.34
2017-06-28T04:32:56.116Z,25.43
2017-06-28T04:35:23.624Z,25.60
2017-06-28T04:37:51.154Z,25.65
2017-06-28T04:40:18.666Z,25.70
2017-06-28T04:42:46.181Z,25.66
2017-06-28T04:45:13.744Z,25.64
2017-06-28T04:47:41.290Z,25.69
2017-06-28T04:50:08.809Z,25.69
2017-06-28T04:52:36.377Z,25.64
2017-06-28T04:55:03.884Z,25.65
2017-06-28T04:57:31.388Z,25.79
2017-06-28T04:59:58.933Z,25.94
2017-06-28T05:02:26.482Z,26.13
2017-06-28T05:04:53.988Z,25.88
2017-06-28T05:07:21.496Z,25.88
2017-06-28T05:09:49.042Z,25.96
2017-06-28T05:12:16.559Z,26.04
2017-06-28T05:14:44.060Z,26.00
2017-06-28T05:17:11.614Z,26.01
2017-06-28T05:19:39.122Z,26.15
2017-06-28T05:22:06.697Z,26.21
2017-06-28T05:24:34.309Z,26.24
2017-06-28T05:27:01.893Z,26.13
2017-06-28T05:29:29.458Z,26.20
2017-06-28T05:31:57.058Z,26.31
2017-06-28T05:34:24.573Z,26.37
2017-06-28T05:36:52.095Z,26.45
2017-06-28T05:39:19.664Z,26.48
2017-06-28T05:41:47.172Z,25.82
2017-06-28T05:44:14.693Z,26.16
2017-06-28T05:46:42.240Z,26.46
2017-06-28T05:49:09.754Z,25.42
2017-06-28T05:51:37.310Z,25.42
2017-06-28T05:54:04.856Z,25.26
2017-06-28T05:56:32.366Z,25.80
2017-06-28T05:58:59.888Z,26.42
2017-06-28T06:01:27.443Z,25.84
2017-06-28T06:03:54.963Z,25.36
2017-06-28T06:06:22.490Z,25.54
2017-06-28T06:08:50.142Z,26.09
2017-06-28T06:11:17.655Z,25.77
2017-06-28T06:13:45.165Z,25.86
2017-06-28T06:16:12.704Z,26.01
2017-06-28T06:18:40.227Z,26.13
2017-06-28T06:21:07.811Z,26.43
2017-06-28T06:23:35.353Z,26.23
2017-06-28T06:26:02.888Z,26.17
2017-06-28T06:28:30.403Z,26.43
2017-06-28T06:30:57.953Z,26.33
2017-06-28T06:33:25.448Z,26.54
2017-06-28T06:35:52.969Z,26.60
2017-06-28T06:38:20.578Z,26.35
2017-06-28T06:40:48.097Z,26.78
2017-06-28T06:43:15.608Z,27.11
2017-06-28T06:45:43.180Z,27.05
2017-06-28T06:48:10.751Z,27.48
2017-06-28T06:50:39.204Z,27.68
2017-06-28T06:53:06.756Z,27.65
2017-06-28T06:55:34.274Z,27.59
2017-06-28T06:58:01.800Z,27.11
2017-06-28T07:00:29.347Z,27.21
2017-06-28T07:02:56.868Z,26.98
2017-06-28T07:05:24.393Z,27.23
2017-06-28T07:07:51.953Z,27.30
2017-06-28T07:10:19.484Z,27.89
2017-06-28T07:12:46.993Z,27.63
2017-06-28T07:15:14.583Z,27.68
2017-06-28T07:17:42.107Z,27.63
2017-06-28T07:20:09.626Z,27.63
2017-06-28T07:22:37.169Z,28.02
2017-06-28T07:25:04.679Z,28.32
2017-06-28T07:27:32.242Z,28.24
2017-06-28T07:29:59.810Z,28.04
2017-06-28T07:32:27.382Z,27.62
2017-06-28T07:34:54.971Z,28.31
2017-06-28T07:37:22.535Z,28.75
2017-06-28T07:39:50.123Z,28.23
2017-06-28T07:42:17.645Z,28.37
2017-06-28T07:44:45.158Z,28.07
2017-06-28T07:47:12.763Z,28.52
2017-06-28T07:49:40.292Z,28.43
2017-06-28T07:52:07.799Z,28.76
2017-06-28T07:54:35.357Z,28.65
2017-06-28T07:57:02.880Z,29.21
2017-06-28T07:59:30.393Z,29.66
2017-06-28T08:01:57.925Z,29.47
2017-06-28T08:04:25.526Z,28.98
2017-06-28T08:06:53.051Z,29.35
2017-06-28T08:09:20.655Z,29.24
2017-06-28T08:11:48.203Z,29.03
2017-06-28T08:14:15.720Z,29.16
2017-06-28T08:16:43.336Z,28.99
2017-06-28T08:19:10.859Z,29.30
2017-06-28T08:21:38.367Z,30.02
2017-06-28T08:24:05.916Z,30.01
2017-06-28T08:26:33.488Z,29.58
2017-06-28T08:29:01.004Z,29.83
2017-06-28T08:31:28.554Z,30.37
2017-06-28T08:33:56.057Z,30.22
2017-06-28T08:36:23.580Z,29.89
2017-06-28T08:38:51.173Z,29.51
2017-06-28T08:41:18.690Z,29.63
2017-06-28T08:43:46.246Z,30.25
2017-06-28T08:46:13.854Z,30.24
2017-06-28T08:48:41.374Z,29.77
2017-06-28T08:51:08.900Z,29.58
2017-06-28T08:53:36.519Z,29.58
2017-06-28T08:56:04.056Z,29.98
2017-06-28T08:58:31.632Z,29.90
2017-06-28T09:00:59.195Z,30.17
2017-06-28T09:03:26.696Z,30.26
2017-06-28T09:05:54.215Z,30.04
2017-06-28T09:08:21.768Z,30.53
2017-06-28T09:10:49.305Z,30.24
2017-06-28T09:13:16.827Z,30.21
2017-06-28T09:15:44.423Z,30.09
2017-06-28T09:18:11.934Z,30.69
2017-06-28T09:20:39.452Z,30.42
2017-06-28T09:23:06.992Z,30.59
2017-06-28T09:25:34.513Z,30.35
2017-06-28T09:28:02.044Z,30.41
2017-06-28T09:30:29.689Z,30.84
2017-06-28T09:32:57.187Z,30.85
2017-06-28T09:35:24.684Z,30.78
2017-06-28T09:37:52.936Z,30.55
2017-06-28T09:40:20.465Z,31.10
2017-06-28T09:42:47.992Z,31.62
2017-06-28T09:45:15.527Z,31.68
2017-06-28T09:47:43.038Z,31.44
2017-06-28T09:50:10.555Z,31.23
2017-06-28T09:52:38.114Z,31.47
2017-06-28T09:55:05.639Z,32.07
2017-06-28T09:57:33.165Z,32.37
2017-06-28T10:00:00.706Z,32.55
2017-06-28T10:02:28.249Z,32.43
2017-06-28T10:04:55.784Z,32.46
2017-06-28T10:07:23.292Z,32.62
2017-06-28T10:09:50.841Z,32.28
2017-06-28T10:12:18.361Z,32.84
2017-06-28T10:14:45.876Z,33.28
2017-06-28T10:17:13.436Z,33.32
2017-06-28T10:19:40.950Z,32.62
2017-06-28T10:22:08.462Z,32.57
2017-06-28T10:24:36.008Z,32.54
2017-06-28T10:27:03.525Z,32.52
2017-06-28T10:29:31.068Z,32.77
2017-06-28T10:31:58.615Z,32.70
2017-06-28T10:34:26.136Z,33.59
2017-06-28T10:36:53.645Z,33.79
2017-06-28T10:39:21.208Z,34.19
2017-06-28T10:41:48.720Z,34.10
2017-06-28T10:44:16.240Z,33.82
2017-06-28T10:46:43.809Z,34.10
2017-06-28T10:49:11.501Z,33.69
2017-06-28T10:51:39.063Z,33.34
2017-06-28T10:54:06.674Z,32.42
2017-06-28T10:56:34.213Z,32.72
2017-06-28T10:59:01.733Z,33.36
2017-06-28T11:01:29.277Z,33.64
2017-06-28T11:03:56.777Z,33.87
2017-06-28T11:06:24.310Z,33.82
2017-06-28T11:08:51.853Z,33.43
2017-06-28T11:11:19.372Z,33.55
2017-06-28T11:13:46.886Z,33.63
2017-06-28T11:16:14.427Z,33.79
2017-06-28T11:18:41.961Z,33.67
2017-06-28T11:21:09.500Z,33.38
2017-06-28T11:23:37.051Z,32.92
2017-06-28T11:26:04.563Z,32.83
2017-06-28T11:28:32.105Z,33.38
2017-06-28T11:30:59.687Z,33.26
2017-06-28T11:33:27.239Z,33.06
2017-06-28T11:35:54.837Z,32.81
2017-06-28T11:38:22.373Z,32.76
2017-06-28T11:40:49.891Z,33.07
2017-06-28T11:43:17.410Z,32.99
2017-06-28T11:45:44.972Z,32.82
2017-06-28T11:48:12.507Z,32.78
2017-06-28T11:50:40.019Z,32.93
2017-06-28T11:53:07.589Z,33.28
2017-06-28T11:55:35.101Z,33.58
2017-06-28T11:58:02.650Z,33.78
2017-06-28T12:00:30.191Z,33.43
2017-06-28T12:02:57.697Z,33.53
2017-06-28T12:05:25.201Z,33.98
2017-06-28T12:07:52.775Z,34.31
2017-06-28T12:10:20.296Z,34.44
2017-06-28T12:12:47.802Z,34.32
2017-06-28T12:15:15.353Z,33.85
2017-06-28T12:17:42.866Z,33.57
2017-06-28T12:20:10.381Z,33.36
2017-06-28T12:22:37.943Z,33.66
2017-06-28T12:25:05.483Z,33.44
2017-06-28T12:27:33.002Z,33.29
2017-06-28T12:30:00.562Z,33.28
2017-06-28T12:32:28.119Z,33.04
2017-06-28T12:34:55.651Z,33.00
2017-06-28T12:37:23.174Z,33.06
2017-06-28T12:39:50.723Z,33.14
2017-06-28T12:42:18.253Z,33.03
2017-06-28T12:44:45.764Z,33.24
2017-06-28T12:47:13.321Z,33.33
2017-06-28T12:49:40.837Z,33.10
2017-06-28T12:52:08.357Z,33.02
2017-06-28T12:54:35.919Z,33.07
2017-06-28T12:57:03.438Z,33.37
2017-06-28T12:59:30.959Z,33.50
2017-06-28T13:01:58.514Z,33.29
2017-06-28T13:04:26.047Z,32.85
2017-06-28T13:06:53.572Z,32.71
2017-06-28T13:09:21.117Z,33.01
2017-06-28T13:11:48.635Z,33.32
2017-06-28T13:14:16.141Z,33.18
2017-06-28T13:16:43.689Z,33.21
2017-06-28T13:19:11.222Z,33.21
2017-06-28T13:21:38.732Z,33.12
2017-06-28T13:24:06.297Z,33.15
2017-06-28T13:26:34.111Z,33.21
2017-06-28T13:29:01.637Z,33.24
2017-06-28T13:31:29.233Z,32.71
2017-06-28T13:33:56.761Z,32.71
2017-06-28T13:36:24.294Z,32.42
2017-06-28T13:38:51.876Z,32.33
2017-06-28T13:41:19.380Z,32.45
2017-06-28T13:43:46.911Z,32.34
2017-06-28T13:46:14.455Z,32.25
2017-06-28T13:48:41.973Z,32.22
2017-06-28T13:51:09.486Z,32.31
2017-06-28T13:53:37.061Z,32.43
2017-06-28T13:56:04.585Z,32.34
2017-06-28T13:58:32.107Z,32.09
2017-06-28T14:00:59.666Z,32.30
2017-06-28T14:03:27.165Z,32.22
2017-06-28T14:05:54.678Z,32.22
2017-06-28T14:08:22.245Z,32.19
2017-06-28T14:10:49.777Z,32.06
2017-06-28T14:13:17.305Z,32.07
2017-06-28T14:15:44.868Z,32.11
2017-06-28T14:18:12.393Z,32.33
2017-06-28T14:20:39.906Z,32.30
2017-06-28T14:23:07.471Z,32.17
2017-06-28T14:25:34.983Z,32.14
2017-06-28T14:28:02.525Z,32.14
2017-06-28T14:30:30.118Z,32.25
2017-06-28T14:32:57.671Z,32.34
2017-06-28T14:35:25.612Z,32.38
2017-06-28T14:37:53.201Z,32.36
2017-06-28T14:40:20.731Z,32.38
2017-06-28T14:42:48.241Z,32.07
2017-06-28T14:45:15.817Z,32.10
2017-06-28T14:47:43.350Z,32.00
2017-06-28T14:50:10.858Z,31.85
2017-06-28T14:52:38.431Z,31.73
2017-06-28T14:55:05.945Z,31.43
2017-06-28T14:57:33.465Z,31.51
2017-06-28T15:00:01.040Z,31.55
2017-06-28T15:02:28.579Z,31.62
2017-06-28T15:04:56.097Z,31.51
2017-06-28T15:07:23.617Z,31.54
2017-06-28T15:09:51.224Z,31.55
2017-06-28T15:12:18.734Z,31.64
2017-06-28T15:14:46.248Z,31.57
2017-06-28T15:17:13.801Z,31.64
2017-06-28T15:19:41.309Z,31.76
2017-06-28T15:22:08.826Z,31.70
2017-06-28T15:24:36.389Z,31.62
2017-06-28T15:27:03.917Z,31.53
2017-06-28T15:29:31.448Z,31.57
2017-06-28T15:31:58.988Z,31.46
2017-06-28T15:34:26.501Z,31.40
2017-06-28T15:36:54.016Z,31.39
2017-06-28T15:39:21.575Z,31.39
2017-06-28T15:41:49.097Z,31.39
2017-06-28T15:44:16.629Z,31.10
2017-06-28T15:46:44.182Z,31.11
2017-06-28T15:49:11.685Z,31.18
2017-06-28T15:51:39.206Z,31.10
2017-06-28T15:54:18.724Z,31.10
2017-06-28T15:56:47.201Z,31.08
2017-06-28T15:59:14.728Z,31.01
2017-06-28T16:01:42.293Z,31.02
2017-06-28T16:04:09.792Z,30.99
2017-06-28T16:06:37.304Z,30.99
2017-06-28T16:09:04.883Z,30.83
2017-06-28T16:11:32.417Z,30.80
2017-06-28T16:13:59.937Z,30.96
2017-06-28T16:16:28.272Z,30.93
2017-06-28T16:18:55.782Z,31.10
2017-06-28T16:21:23.289Z,31.21
2017-06-28T16:23:51.620Z,31.21
2017-06-28T16:26:19.197Z,31.26
2017-06-28T16:28:46.768Z,31.14
2017-06-28T16:31:14.336Z,31.23
2017-06-28T16:33:41.847Z,31.27
2017-06-28T16:36:09.383Z,31.27
2017-06-28T16:38:36.965Z,31.41
2017-06-28T16:41:04.489Z,31.24
2017-06-28T16:43:32.008Z,31.23
2017-06-28T16:45:59.572Z,31.32
2017-06-28T16:48:27.198Z,31.45
2017-06-28T16:50:54.756Z,31.10
2017-06-28T16:53:22.299Z,30.79
2017-06-28T16:55:50.144Z,30.47
2017-06-28T16:58:17.746Z,30.93
2017-06-28T17:00:45.519Z,30.82
2017-06-28T17:03:13.020Z,30.70
2017-06-28T17:05:40.544Z,30.63
2017-06-28T17:08:08.997Z,30.68
2017-06-28T17:10:36.501Z,30.71
2017-06-28T17:13:04.039Z,30.56
2017-06-28T17:15:31.773Z,30.60
2017-06-28T17:17:59.287Z,30.62
2017-06-28T17:20:26.832Z,30.63
2017-06-28T17:22:54.380Z,30.51
2017-06-28T17:25:21.892Z,30.48
2017-06-28T17:27:49.398Z,30.42
2017-06-28T17:30:17.743Z,30.35
2017-06-28T17:32:45.259Z,30.28
2017-06-28T17:35:12.776Z,29.94
2017-06-28T17:37:40.328Z,29.51
2017-06-28T17:40:08.412Z,29.49
2017-06-28T17:42:36.003Z,29.40
2017-06-28T17:45:03.670Z,29.31
2017-06-28T17:47:32.065Z,29.13
2017-06-28T17:50:00.067Z,29.01
2017-06-28T17:52:27.609Z,28.98
2017-06-28T17:54:55.139Z,28.91
2017-06-28T17:57:22.653Z,28.82
2017-06-28T17:59:50.540Z,28.86
2017-06-28T18:02:18.086Z,29.02
2017-06-28T18:04:45.900Z,28.81
2017-06-28T18:07:13.430Z,28.75
2017-06-28T18:09:41.096Z,28.78
2017-06-28T18:12:08.648Z,28.67
2017-06-28T18:14:36.233Z,28.67
2017-06-28T18:17:04.657Z,28.59
2017-06-28T18:19:32.273Z,28.59
2017-06-28T18:21:59.798Z,28.56
2017-06-28T18:24:28.137Z,28.56
2017-06-28T18:26:55.746Z,28.52
2017-06-28T18:29:23.254Z,28.49
2017-06-28T18:31:50.808Z,28.48
2017-06-28T18:34:18.623Z,28.45
2017-06-28T18:36:46.150Z,28.45
2017-06-28T18:39:13.719Z,28.42
2017-06-28T18:41:41.222Z,28.31
2017-06-28T18:44:08.801Z,28.44
2017-06-28T18:46:36.367Z,28.00
2017-06-28T18:49:04.773Z,27.63
2017-06-28T18:51:32.293Z,27.80
2017-06-28T18:53:59.856Z,27.70
2017-06-28T18:56:27.425Z,27.89
2017-06-28T18:58:54.960Z,27.97
2017-06-28T19:01:22.791Z,28.18
2017-06-28T19:03:50.298Z,27.74
2017-06-28T19:06:17.816Z,27.38
2017-06-28T19:08:45.364Z,27.27
2017-06-28T19:11:12.902Z,27.29
2017-06-28T19:13:40.422Z,27.15
2017-06-28T19:16:08.009Z,26.94
2017-06-28T19:18:35.651Z,26.81
2017-06-28T19:21:03.155Z,26.61
2017-06-28T19:23:30.724Z,26.40
2017-06-28T19:25:58.240Z,26.49
2017-06-28T19:28:25.744Z,26.53
2017-06-28T19:30:53.319Z,26.48
2017-06-28T19:33:20.824Z,26.61
2017-06-28T19:35:48.334Z,26.45
2017-06-28T19:38:15.919Z,26.20
2017-06-28T19:40:43.436Z,26.45
2017-06-28T19:43:10.967Z,26.34
2017-06-28T19:45:38.547Z,26.20
2017-06-28T19:48:06.110Z,26.35
2017-06-28T19:50:33.641Z,26.34
2017-06-28T19:53:01.458Z,26.31
2017-06-28T19:55:28.995Z,26.26
2017-06-28T19:57:56.505Z,26.00
2017-06-28T20:00:24.156Z,25.90
2017-06-28T20:02:51.700Z,25.77
2017-06-28T20:05:19.266Z,25.77
2017-06-28T20:07:46.779Z,25.68
2017-06-28T20:10:14.283Z,25.67
2017-06-28T20:12:41.784Z,25.78
2017-06-28T20:15:09.360Z,25.76
2017-06-28T20:17:36.883Z,25.75
2017-06-28T20:20:04.466Z,25.98
2017-06-28T20:22:32.051Z,26.09
2017-06-28T20:24:59.799Z,26.05
2017-06-28T20:27:27.307Z,26.10
2017-06-28T20:29:54.850Z,26.03
2017-06-28T20:32:22.370Z,26.16
2017-06-28T20:34:49.863Z,26.05
2017-06-28T20:37:17.362Z,25.96
2017-06-28T20:39:45.768Z,25.94
2017-06-28T20:42:13.265Z,25.73
2017-06-28T20:44:40.776Z,26.04
2017-06-28T20:47:08.324Z,25.98
2017-06-28T20:49:35.843Z,26.01
2017-06-28T20:52:03.352Z,26.04
2017-06-28T20:54:30.905Z,26.05
2017-06-28T20:56:58.394Z,26.05
2017-06-28T20:59:25.893Z,26.09
2017-06-28T21:01:53.422Z,25.81
2017-06-28T21:04:20.968Z,26.13
2017-06-28T21:06:48.488Z,26.34
2017-06-28T21:09:16.033Z,26.41
2017-06-28T21:11:43.534Z,26.05
2017-06-28T21:14:11.044Z,26.07
2017-06-28T21:16:38.594Z,26.04
2017-06-28T21:19:06.085Z,26.00
2017-06-28T21:21:33.591Z,25.94
2017-06-28T21:24:01.128Z,26.00
2017-06-28T21:26:28.619Z,26.07
2017-06-28T21:28:56.111Z,26.03
2017-06-28T21:31:23.674Z,26.04
2017-06-28T21:33:51.170Z,26.27
2017-06-28T21:36:18.656Z,26.28
2017-06-28T21:38:46.210Z,26.08
2017-06-28T21:41:13.705Z,26.17
2017-06-28T21:43:41.215Z,26.23
2017-06-28T21:46:08.852Z,25.88
2017-06-28T21:48:36.357Z,25.74
2017-06-28T21:51:03.863Z,25.58
2017-06-28T21:53:31.390Z,25.52
2017-06-28T21:56:09.476Z,25.39
2017-06-28T21:58:56.545Z,25.67
2017-06-28T22:01:30.160Z,26.04
2017-06-28T22:03:57.798Z,26.22
2017-06-28T22:06:25.320Z,26.15
2017-06-28T22:08:52.866Z,25.91
2017-06-28T22:11:20.370Z,26.05
2017-06-28T22:13:47.871Z,25.92
2017-06-28T22:16:15.416Z,25.79
2017-06-28T22:18:54.636Z,25.51
2017-06-28T22:21:25.553Z,25.56
2017-06-28T22:24:06.928Z,25.98
2017-06-28T22:26:39.007Z,25.69
2017-06-28T22:31:46.840Z,25.37
2017-06-28T22:34:21.473Z,25.48
2017-06-28T22:36:51.138Z,25.58
2017-06-28T22:41:59.920Z,25.98
2017-06-28T22:44:38.607Z,26.14
2017-06-28T22:47:15.191Z,26.16
2017-06-28T22:52:35.244Z,25.82
2017-06-28T22:55:02.734Z,25.52
2017-06-28T22:57:30.220Z,25.58
2017-06-28T22:59:57.764Z,25.36
2017-06-28T23:02:25.321Z,25.22
2017-06-28T23:04:52.818Z,25.16
2017-06-28T23:07:20.330Z,25.17
2017-06-28T23:09:47.876Z,25.10
2017-06-28T23:12:15.391Z,25.07
2017-06-28T23:14:42.878Z,24.97
2017-06-28T23:17:10.419Z,25.20
2017-06-28T23:19:37.903Z,25.33
2017-06-28T23:22:05.416Z,25.23
2017-06-28T23:24:32.970Z,25.03
2017-06-28T23:27:00.896Z,25.06
2017-06-28T23:29:28.393Z,24.95
2017-06-28T23:31:55.922Z,25.06
2017-06-28T23:34:23.406Z,25.25
2017-06-28T23:36:50.926Z,25.48
2017-06-28T23:39:18.476Z,25.32
2017-06-28T23:41:45.987Z,25.15
2017-06-28T23:44:13.497Z,25.39
2017-06-28T23:46:41.056Z,25.12
2017-06-28T23:49:08.715Z,24.82
2017-06-28T23:51:36.198Z,24.76
2017-06-28T23:54:03.744Z,24.71
2017-06-28T23:56:31.237Z,24.58
2017-06-28T23:58:58.718Z,24.40
